Time;durP1;ratioP1;P1;durP2;ratioP2;P2;SDS_P1;SDS_P2;PMS_P1;PMS_P2;Temp;Humidity;BMP_temperature;BMP_pressure;BME280_temperature;BME280_humidity;BME280_pressure;Samples;Min_cycle;Max_cycle;Signal;HPM_P1;HPM_P2
2021/06/05 00:00:11;;;;;;;1999.90;999.90;;;;;;;12.26;98.20;96389.97;5132313;27;20281;-60
2021/06/05 00:02:38;;;;;;;1999.90;999.90;;;;;;;12.10;99.15;96381.59;5132015;27;20220;-60
2021/06/05 00:05:08;;;;;;;1999.90;999.90;;;;;;;12.12;99.94;96381.31;5130522;27;20669;-60
2021/06/05 00:07:34;;;;;;;1999.90;999.90;;;;;;;12.24;99.61;96376.47;5132308;27;20198;-59
2021/06/05 00:10:02;;;;;;;1999.90;999.90;;;;;;;12.30;100.00;96377.97;5131766;27;20237;-60
2021/06/05 00:12:30;;;;;;;1999.90;999.90;;;;;;;12.35;100.00;96383.84;5132126;27;20209;-60
2021/06/05 00:14:57;;;;;;;1999.90;999.90;;;;;;;12.41;100.00;96377.50;5132022;27;20201;-59
2021/06/05 00:17:24;;;;;;;1999.90;999.90;;;;;;;12.47;100.00;96384.22;5131295;27;20293;-59
2021/06/05 00:19:51;;;;;;;1999.90;999.90;;;;;;;12.38;100.00;96382.53;5132069;27;20610;-58
2021/06/05 00:22:20;;;;;;;1999.90;999.90;;;;;;;12.18;98.04;96382.78;5131932;27;20197;-59
2021/06/05 00:24:47;;;;;;;1999.90;999.90;;;;;;;12.04;98.46;96387.94;5131839;27;20269;-61
2021/06/05 00:27:13;;;;;;;1999.90;999.90;;;;;;;11.96;98.47;96389.31;5131858;27;20310;-59
2021/06/05 00:29:40;;;;;;;1999.90;999.90;;;;;;;11.83;99.57;96379.59;5131504;27;20222;-60
2021/06/05 00:32:08;;;;;;;1999.90;999.90;;;;;;;11.81;100.00;96379.06;5131668;27;20700;-58
2021/06/05 00:34:34;;;;;;;1999.90;999.90;;;;;;;11.81;100.00;96376.47;5131666;27;20187;-59
2021/06/05 00:37:01;;;;;;;1999.90;999.90;;;;;;;11.83;100.00;96374.38;5131602;27;20313;-59
2021/06/05 00:39:29;;;;;;;1999.90;999.90;;;;;;;11.81;100.00;96371.25;5131359;27;20194;-58
2021/06/05 00:41:56;;;;;;;1999.90;999.90;;;;;;;11.87;100.00;96377.97;5131498;27;20205;-59
2021/06/05 00:44:23;;;;;;;1999.90;999.90;;;;;;;11.78;100.00;96377.03;5131353;27;20577;-59
2021/06/05 00:46:50;;;;;;;1999.90;999.90;;;;;;;11.69;100.00;96377.91;5131274;27;20776;-58
2021/06/05 00:49:17;;;;;;;1999.90;999.90;;;;;;;11.39;100.00;96379.78;5131470;27;20229;-59
2021/06/05 00:51:46;;;;;;;1999.90;999.90;;;;;;;11.32;100.00;96378.53;5131399;27;20225;-59
2021/06/05 00:54:14;;;;;;;1999.90;999.90;;;;;;;11.30;98.33;96380.66;5131102;27;20223;-60
2021/06/05 00:56:45;;;;;;;1999.90;999.90;;;;;;;11.33;100.00;96374.91;5131193;27;20198;-59
2021/06/05 00:59:12;;;;;;;1999.90;999.90;;;;;;;11.45;100.00;96375.31;5131145;27;20254;-58
2021/06/05 01:01:39;;;;;;;1999.90;999.90;;;;;;;11.52;100.00;96381.72;5129976;27;20318;-58
2021/06/05 01:04:06;;;;;;;1999.90;999.90;;;;;;;11.34;100.00;96389.47;5131018;27;20194;-58
2021/06/05 01:06:38;;;;;;;1999.90;999.90;;;;;;;11.22;100.00;96395.03;5131286;27;20222;-58
2021/06/05 01:09:10;;;;;;;1999.90;999.90;;;;;;;11.13;100.00;96394.88;5130930;28;20234;-59
2021/06/05 01:11:46;;;;;;;1999.90;999.90;;;;;;;11.19;100.00;96398.97;5131047;27;20190;-58
2021/06/05 01:14:23;;;;;;;1999.90;999.90;;;;;;;11.31;99.99;96400.44;5131049;28;20210;-59
2021/06/05 01:16:53;;;;;;;1999.90;999.90;;;;;;;11.17;99.66;96403.66;5130979;28;20201;-58
2021/06/05 01:19:40;;;;;;;1999.90;999.90;;;;;;;11.06;98.97;96409.22;5130983;28;20680;-60
2021/06/05 01:22:20;;;;;;;1999.90;999.90;;;;;;;10.85;98.95;96406.03;5130994;28;20191;-59
2021/06/05 01:25:06;;;;;;;1999.90;999.90;;;;;;;10.83;99.37;96407.34;5131299;28;20202;-59
2021/06/05 01:27:38;;;;;;;1999.90;999.90;;;;;;;10.48;98.27;96414.34;5130803;27;20207;-58
2021/06/05 01:30:13;;;;;;;1999.90;999.90;;;;;;;10.33;97.91;96420.41;5131958;27;20229;-59
2021/06/05 01:32:40;;;;;;;1999.90;999.90;;;;;;;10.29;98.35;96416.00;5135290;27;20197;-59
2021/06/05 01:35:12;;;;;;;1999.90;999.90;;;;;;;10.08;98.07;96407.50;5135121;27;20198;-59
2021/06/05 01:37:41;;;;;;;1999.90;999.90;;;;;;;10.12;98.61;96397.34;5135269;27;20202;-59
2021/06/05 01:40:11;;;;;;;1999.90;999.90;;;;;;;10.21;98.33;96406.19;5134781;27;20191;-60
2021/06/05 01:42:41;;;;;;;1999.90;999.90;;;;;;;10.23;98.86;96402.25;5134905;27;20664;-58
2021/06/05 01:45:14;;;;;;;1999.90;999.90;;;;;;;10.24;99.47;96401.22;5134962;27;20198;-59
2021/06/05 01:47:41;;;;;;;1999.90;999.90;;;;;;;10.27;100.00;96395.47;5135121;27;20703;-60
2021/06/05 01:50:10;;;;;;;1999.90;999.90;;;;;;;10.31;100.00;96399.09;5134546;27;20847;-60
2021/06/05 01:52:39;;;;;;;1999.90;999.90;;;;;;;10.33;100.00;96399.59;5134643;27;20609;-59
2021/06/05 01:55:13;;;;;;;1999.90;999.90;;;;;;;10.32;100.00;96395.44;5134781;27;20215;-60
2021/06/05 01:57:51;;;;;;;1999.90;999.90;;;;;;;10.24;100.00;96393.44;5134569;27;20710;-61
2021/06/05 02:00:21;;;;;;;1999.90;999.90;;;;;;;10.22;100.00;96400.72;5134532;27;20251;-60
2021/06/05 02:02:48;;;;;;;1999.90;999.90;;;;;;;10.27;100.00;96403.28;5134381;27;20209;-60
2021/06/05 02:05:15;;;;;;;1999.90;999.90;;;;;;;10.25;100.00;96395.00;5134530;27;20239;-60
2021/06/05 02:07:42;;;;;;;1999.90;999.90;;;;;;;10.26;100.00;96400.97;5134196;27;20570;-59
2021/06/05 02:10:11;;;;;;;1999.90;999.90;;;;;;;10.26;100.00;96399.13;5133823;27;20237;-59
2021/06/05 02:12:40;;;;;;;1999.90;999.90;;;;;;;10.28;100.00;96401.47;5134193;27;20197;-59
2021/06/05 02:15:17;;;;;;;1999.90;999.90;;;;;;;10.38;100.00;96404.00;5134608;27;20703;-59
2021/06/05 02:17:45;;;;;;;1999.90;999.90;;;;;;;10.37;100.00;96399.84;5134223;27;20202;-61
2021/06/05 02:20:17;;;;;;;1999.90;999.90;;;;;;;10.11;100.00;96399.16;5134020;27;20665;-61
2021/06/05 02:22:46;;;;;;;1999.90;999.90;;;;;;;10.12;100.00;96398.13;5134592;27;20918;-61
2021/06/05 02:25:15;;;;;;;1999.90;999.90;;;;;;;10.09;100.00;96395.31;5134128;27;20281;-60
2021/06/05 02:27:43;;;;;;;1999.90;999.90;;;;;;;10.17;100.00;96403.31;5134144;27;20214;-60
2021/06/05 02:30:18;;;;;;;1999.90;999.90;;;;;;;10.13;100.00;96404.09;5133747;27;20226;-60
2021/06/05 02:32:46;;;;;;;1999.90;999.90;;;;;;;10.11;100.00;96396.56;5133966;27;20201;-59
2021/06/05 02:35:16;;;;;;;1999.90;999.90;;;;;;;10.12;100.00;96389.56;5134075;27;20226;-58
2021/06/05 02:37:45;;;;;;;1999.90;999.90;;;;;;;10.19;100.00;96390.84;5133699;27;20187;-60
2021/06/05 02:40:16;;;;;;;1999.90;999.90;;;;;;;10.33;100.00;96386.63;5133491;27;20285;-60
2021/06/05 02:42:43;;;;;;;1999.90;999.90;;;;;;;10.41;100.00;96389.72;5133516;27;20198;-59
2021/06/05 02:45:19;;;;;;;1999.90;999.90;;;;;;;10.40;100.00;96382.94;5133694;27;20192;-60
2021/06/05 02:47:54;;;;;;;1999.90;999.90;;;;;;;10.40;100.00;96383.72;5133953;27;20190;-59
2021/06/05 02:50:21;;;;;;;1999.90;999.90;;;;;;;10.44;100.00;96379.53;5133415;27;20222;-59
2021/06/05 02:52:50;;;;;;;1999.90;999.90;;;;;;;10.47;100.00;96380.81;5133727;27;20237;-59
2021/06/05 02:55:20;;;;;;;1999.90;999.90;;;;;;;10.47;100.00;96380.81;5133916;27;20191;-60
2021/06/05 02:57:47;;;;;;;1999.90;999.90;;;;;;;10.50;100.00;96380.28;5133413;27;20622;-59
2021/06/05 03:00:21;;;;;;;1999.90;999.90;;;;;;;10.52;100.00;96386.75;5133395;27;20246;-59
2021/06/05 03:02:48;;;;;;;1999.90;999.90;;;;;;;10.52;100.00;96381.56;5133355;27;20202;-59
2021/06/05 03:05:15;;;;;;;1999.90;999.90;;;;;;;10.55;100.00;96381.03;5133107;27;20685;-59
2021/06/05 03:07:41;;;;;;;1999.90;999.90;;;;;;;10.59;100.00;96379.44;5132908;27;20186;-59
2021/06/05 03:10:10;;;;;;;1999.90;999.90;;;;;;;10.44;100.00;96386.56;5132724;27;20237;-59
2021/06/05 03:12:38;;;;;;;1999.90;999.90;;;;;;;10.27;100.00;96394.69;5132935;27;20605;-61
2021/06/05 03:15:08;;;;;;;1999.90;999.90;;;;;;;10.15;100.00;96396.84;5133240;27;20224;-59
2021/06/05 03:17:37;;;;;;;1999.90;999.90;;;;;;;10.05;100.00;96397.66;5133113;27;20195;-59
2021/06/05 03:20:07;;;;;;;1999.90;999.90;;;;;;;10.10;100.00;96394.25;5133047;27;20210;-60
2021/06/05 03:22:34;;;;;;;1999.90;999.90;;;;;;;10.20;100.00;96389.81;5132953;27;20218;-60
2021/06/05 03:25:01;;;;;;;1999.90;999.90;;;;;;;10.21;100.00;96393.19;5132750;27;20203;-62
2021/06/05 03:27:27;;;;;;;1999.90;999.90;;;;;;;10.29;100.00;96388.22;5132653;27;20218;-60
2021/06/05 03:29:55;;;;;;;1999.90;999.90;;;;;;;10.39;100.00;96389.19;5132896;27;20274;-61
2021/06/05 03:32:22;;;;;;;1999.90;999.90;;;;;;;10.51;100.00;96389.66;5133112;27;20547;-60
2021/06/05 03:34:50;;;;;;;1999.90;999.90;;;;;;;10.43;100.00;96392.78;5132520;27;20194;-59
2021/06/05 03:37:17;;;;;;;1999.90;999.90;;;;;;;10.48;100.00;96395.38;5132590;27;20632;-59
2021/06/05 03:39:44;;;;;;;1999.90;999.90;;;;;;;10.49;100.00;96396.91;5132363;27;20235;-61
2021/06/05 03:42:11;;;;;;;1999.90;999.90;;;;;;;10.53;100.00;96397.94;5132540;27;20190;-59
2021/06/05 03:44:38;;;;;;;1999.90;999.90;;;;;;;10.63;100.00;96403.06;5132807;27;20202;-60
2021/06/05 03:47:05;;;;;;;1999.90;999.90;;;;;;;10.71;100.00;96399.88;5132690;27;20725;-61
2021/06/05 03:49:32;;;;;;;1999.90;999.90;;;;;;;10.70;100.00;96403.53;5132212;27;20800;-60
2021/06/05 03:52:01;;;;;;;1999.90;999.90;;;;;;;10.79;100.00;96402.69;5132121;27;20200;-60
2021/06/05 03:54:28;;;;;;;1999.90;999.90;;;;;;;10.94;100.00;96399.19;5131745;27;20681;-59
2021/06/05 03:56:55;;;;;;;1999.90;999.90;;;;;;;10.98;100.00;96405.41;5132229;27;20616;-59
2021/06/05 03:59:21;;;;;;;1999.90;999.90;;;;;;;10.89;100.00;96396.63;5132038;27;20264;-60
2021/06/05 04:01:49;;;;;;;1999.90;999.90;;;;;;;10.93;100.00;96395.03;5132178;27;20194;-60
2021/06/05 04:04:16;;;;;;;1999.90;999.90;;;;;;;10.98;100.00;96397.59;5132016;27;20201;-59
2021/06/05 04:06:42;;;;;;;1999.90;999.90;;;;;;;11.15;100.00;96400.59;5131864;27;20194;-60
2021/06/05 04:09:11;;;;;;;1999.90;999.90;;;;;;;11.11;100.00;96403.97;5131537;27;20341;-60
2021/06/05 04:11:37;;;;;;;1999.90;999.90;;;;;;;11.16;100.00;96401.31;5132138;27;20240;-59
2021/06/05 04:14:05;;;;;;;1999.90;999.90;;;;;;;11.27;100.00;96397.59;5131921;27;20190;-59
2021/06/05 04:16:32;;;;;;;1999.90;999.90;;;;;;;11.36;100.00;96395.16;5131857;27;20194;-60
2021/06/05 04:18:59;;;;;;;1999.90;999.90;;;;;;;11.49;100.00;96390.09;5131654;27;20190;-59
2021/06/05 04:21:27;;;;;;;1999.90;999.90;;;;;;;11.51;100.00;96387.19;5131821;27;20191;-59
2021/06/05 04:23:54;;;;;;;1999.90;999.90;;;;;;;11.83;100.00;96384.78;5131719;27;20208;-60
2021/06/05 04:26:23;;;;;;;1999.90;999.90;;;;;;;12.26;99.86;96392.56;5131796;27;20191;-61
2021/06/05 04:28:51;;;;;;;1999.90;999.90;;;;;;;12.80;96.60;96390.22;5131363;27;20217;-60
2021/06/05 04:31:18;;;;;;;1999.90;999.90;;;;;;;13.14;95.79;96384.00;5131554;27;20281;-60
2021/06/05 04:33:44;;;;;;;1999.90;999.90;;;;;;;13.83;91.95;96387.41;5131492;27;20209;-59
2021/06/05 04:36:15;;;;;;;1999.90;999.90;;;;;;;14.40;88.39;96392.00;5131611;27;20194;-60
2021/06/05 04:38:43;;;;;;;1999.90;999.90;;;;;;;14.92;85.80;96398.41;5131539;27;20202;-60
2021/06/05 04:41:12;;;;;;;1999.90;999.90;;;;;;;15.26;84.66;96397.81;5131322;27;20327;-60
2021/06/05 04:43:41;;;;;;;1999.90;999.90;;;;;;;15.47;83.91;96393.63;5131772;27;20255;-60
2021/06/05 04:46:08;;;;;;;1999.90;999.90;;;;;;;15.49;83.43;96386.22;5131503;27;20191;-60
2021/06/05 04:48:36;;;;;;;1999.90;999.90;;;;;;;15.31;85.10;96389.84;5131402;27;20186;-60
2021/06/05 04:51:03;;;;;;;1999.90;999.90;;;;;;;15.23;85.33;96381.94;5131401;27;20583;-61
2021/06/05 04:53:30;;;;;;;1999.90;999.90;;;;;;;15.30;85.67;96377.81;5131322;27;20198;-59
2021/06/05 04:55:57;;;;;;;1999.90;999.90;;;;;;;15.41;83.39;96373.09;5131287;27;20579;-60
2021/06/05 04:58:24;;;;;;;1999.90;999.90;;;;;;;15.57;82.91;96373.50;5131113;27;20190;-60
2021/06/05 05:00:54;;;;;;;1999.90;999.90;;;;;;;15.86;82.10;96369.28;5131126;27;20194;-60
2021/06/05 05:03:24;;;;;;;1999.90;999.90;;;;;;;15.81;82.43;96371.25;5131162;27;20195;-60
2021/06/05 05:05:52;;;;;;;1999.90;999.90;;;;;;;16.04;84.51;96356.94;5131128;27;20197;-60
2021/06/05 05:08:20;;;;;;;1999.90;999.90;;;;;;;16.16;81.28;96366.84;5130740;27;20203;-60
2021/06/05 05:10:49;;;;;;;1999.90;999.90;;;;;;;16.18;81.79;96352.38;5131065;28;20258;-60
2021/06/05 05:13:19;;;;;;;1999.90;999.90;;;;;;;15.91;84.09;96357.88;5131099;28;20259;-60
2021/06/05 05:15:46;;;;;;;1999.90;999.90;;;;;;;15.96;83.62;96359.56;5131060;28;20191;-58
2021/06/05 05:18:15;;;;;;;1999.90;999.90;;;;;;;16.00;83.57;96358.66;5131013;27;20194;-60
2021/06/05 05:20:44;;;;;;;1999.90;999.90;;;;;;;16.10;83.13;96355.75;5130932;28;20251;-59
2021/06/05 05:23:12;;;;;;;1999.90;999.90;;;;;;;16.35;82.36;96349.75;5130965;28;20694;-59
2021/06/05 05:25:40;;;;;;;1999.90;999.90;;;;;;;16.52;83.87;96348.19;5130815;28;20197;-60
2021/06/05 05:28:08;;;;;;;1999.90;999.90;;;;;;;16.57;83.99;96346.19;5131184;28;20217;-59
2021/06/05 05:30:37;;;;;;;1999.90;999.90;;;;;;;16.62;84.69;96353.94;5131010;28;20248;-59
2021/06/05 05:33:05;;;;;;;1999.90;999.90;;;;;;;16.69;84.53;96348.19;5130745;28;20194;-59
2021/06/05 05:35:34;;;;;;;1999.90;999.90;;;;;;;16.99;81.63;96352.47;5130636;28;20657;-59
2021/06/05 05:38:02;;;;;;;1999.90;999.90;;;;;;;17.18;80.08;96355.50;5130867;28;20198;-59
2021/06/05 05:40:29;;;;;;;1999.90;999.90;;;;;;;17.11;82.15;96347.38;5130674;28;20198;-57
2021/06/05 05:42:56;;;;;;;1999.90;999.90;;;;;;;17.06;82.37;96347.53;5130551;28;20209;-58
2021/06/05 05:45:24;;;;;;;1999.90;999.90;;;;;;;17.05;81.95;96351.22;5130597;28;20187;-59
2021/06/05 05:47:51;;;;;;;1999.90;999.90;;;;;;;17.25;83.30;96349.00;5130652;28;20581;-59
2021/06/05 05:50:21;;;;;;;1999.90;999.90;;;;;;;17.48;80.07;96347.72;5130604;27;20226;-58
2021/06/05 05:52:49;;;;;;;1999.90;999.90;;;;;;;17.92;76.10;96357.72;5130574;28;20240;-58
2021/06/05 05:55:17;;;;;;;1999.90;999.90;;;;;;;17.94;77.35;96358.16;5130313;28;20186;-59
2021/06/05 05:57:43;;;;;;;1999.90;999.90;;;;;;;17.84;78.71;96357.75;5130395;28;20193;-59
2021/06/05 06:00:14;;;;;;;1999.90;999.90;;;;;;;17.80;77.44;96355.00;5130506;28;20234;-57
2021/06/05 06:02:41;;;;;;;1999.90;999.90;;;;;;;17.97;77.97;96359.38;5130499;28;20195;-58
2021/06/05 06:05:09;;;;;;;1999.90;999.90;;;;;;;18.41;77.12;96348.25;5130427;28;20277;-58
2021/06/05 06:07:36;;;;;;;1999.90;999.90;;;;;;;18.50;75.27;96353.44;5130500;27;20194;-58
2021/06/05 06:10:06;;;;;;;1999.90;999.90;;;;;;;18.70;73.25;96362.44;5130119;28;20316;-58
2021/06/05 06:12:33;;;;;;;1999.90;999.90;;;;;;;18.70;71.91;96355.31;5130777;28;20193;-60
2021/06/05 06:15:00;;;;;;;1999.90;999.90;;;;;;;18.77;71.00;96355.56;5130458;27;20641;-58
2021/06/05 06:17:27;;;;;;;1999.90;999.90;;;;;;;18.78;72.48;96351.81;5133557;27;20198;-59
2021/06/05 06:19:54;;;;;;;1999.90;999.90;;;;;;;18.89;72.42;96357.44;5133988;27;20197;-59
2021/06/05 06:22:20;;;;;;;1999.90;999.90;;;;;;;19.03;71.00;96354.53;5134427;27;20285;-59
2021/06/05 06:24:47;;;;;;;1999.90;999.90;;;;;;;19.10;72.68;96347.63;5134275;27;20199;-58
2021/06/05 06:27:15;;;;;;;1999.90;999.90;;;;;;;18.97;71.24;96340.03;5133797;27;20270;-59
2021/06/05 06:29:42;;;;;;;1999.90;999.90;;;;;;;18.85;72.18;96341.53;5133845;27;20233;-58
2021/06/05 06:32:09;;;;;;;1999.90;999.90;;;;;;;18.74;71.06;96350.16;5133792;27;20195;-60
2021/06/05 06:34:36;;;;;;;1999.90;999.90;;;;;;;18.78;72.14;96345.81;5133871;27;20202;-58
2021/06/05 06:37:06;;;;;;;1999.90;999.90;;;;;;;18.79;71.97;96345.47;5133801;27;20586;-59
2021/06/05 06:39:34;;;;;;;1999.90;999.90;;;;;;;18.99;71.79;96337.81;5133979;27;20224;-58
2021/06/05 06:42:00;;;;;;;1999.90;999.90;;;;;;;19.14;71.97;96337.97;5133961;27;20204;-58
2021/06/05 06:44:29;;;;;;;1999.90;999.90;;;;;;;19.24;70.29;96332.28;5133607;27;20198;-59
2021/06/05 06:46:55;;;;;;;1999.90;999.90;;;;;;;19.33;70.30;96335.56;5133484;27;20190;-59
2021/06/05 06:49:24;;;;;;;1999.90;999.90;;;;;;;19.40;70.55;96335.03;5133344;27;20222;-57
2021/06/05 06:51:52;;;;;;;1999.90;999.90;;;;;;;19.69;70.69;96329.59;5133672;27;20194;-58
2021/06/05 06:54:19;;;;;;;1999.90;999.90;;;;;;;19.65;69.22;96320.03;5133832;27;20240;-58
2021/06/05 06:56:46;;;;;;;1999.90;999.90;;;;;;;20.02;68.21;96315.47;5133580;27;20195;-58
2021/06/05 06:59:13;;;;;;;1999.90;999.90;;;;;;;20.26;67.52;96312.78;5133431;27;20282;-58
2021/06/05 07:01:42;;;;;;;1999.90;999.90;;;;;;;20.42;67.29;96313.59;5133184;27;20285;-57
2021/06/05 07:04:10;;;;;;;1999.90;999.90;;;;;;;20.51;66.82;96308.97;5133588;27;20337;-57
2021/06/05 07:06:37;;;;;;;1999.90;999.90;;;;;;;20.52;66.46;96307.84;5133471;27;20194;-58
2021/06/05 07:09:06;;;;;;;1999.90;999.90;;;;;;;20.74;63.65;96306.56;5132947;27;20253;-57
2021/06/05 07:11:35;;;;;;;1999.90;999.90;;;;;;;20.85;65.68;96301.53;5133047;27;20205;-58
2021/06/05 07:14:06;;;;;;;1999.90;999.90;;;;;;;21.06;63.05;96302.09;5133055;27;20190;-59
2021/06/05 07:16:35;;;;;;;1999.90;999.90;;;;;;;21.06;62.83;96296.81;5133129;27;20190;-58
2021/06/05 07:19:04;;;;;;;1999.90;999.90;;;;;;;21.29;62.39;96295.13;5132853;27;20194;-59
2021/06/05 07:21:31;;;;;;;1999.90;999.90;;;;;;;20.55;64.01;96291.34;5132989;27;20206;-58
2021/06/05 07:23:58;;;;;;;1999.90;999.90;;;;;;;20.62;66.75;96290.78;5133095;27;20201;-60
2021/06/05 07:26:28;;;;;;;1999.90;999.90;;;;;;;21.21;65.77;96288.13;5132818;27;20692;-58
2021/06/05 07:28:57;;;;;;;1999.90;999.90;;;;;;;21.35;63.80;96292.97;5132574;27;20599;-58
2021/06/05 07:31:28;;;;;;;1999.90;999.90;;;;;;;21.40;64.70;96298.00;5132651;27;20259;-58
2021/06/05 07:33:55;;;;;;;1999.90;999.90;;;;;;;21.54;61.86;96289.63;5132687;27;20205;-58
2021/06/05 07:36:28;;;;;;;1999.90;999.90;;;;;;;21.52;61.68;96289.22;5132559;27;20246;-57
2021/06/05 07:38:55;;;;;;;1999.90;999.90;;;;;;;21.54;62.44;96290.41;5132875;27;20225;-58
2021/06/05 07:41:22;;;;;;;1999.90;999.90;;;;;;;21.82;60.76;96284.97;5132543;27;20190;-59
2021/06/05 07:43:49;;;;;;;1999.90;999.90;;;;;;;21.87;62.47;96287.34;5132403;27;20281;-60
2021/06/05 07:46:16;;;;;;;1999.90;999.90;;;;;;;22.25;60.19;96279.47;5132741;27;20198;-59
2021/06/05 07:48:43;;;;;;;1999.90;999.90;;;;;;;22.38;58.57;96282.72;5132506;27;20606;-59
2021/06/05 07:51:11;;;;;;;1999.90;999.90;;;;;;;22.39;58.61;96280.84;5132388;27;20727;-59
2021/06/05 07:53:39;;;;;;;1999.90;999.90;;;;;;;22.66;59.54;96283.28;5132185;27;20191;-59
2021/06/05 07:56:06;;;;;;;1999.90;999.90;;;;;;;23.00;57.17;96278.97;5132127;27;20202;-59
2021/06/05 07:58:33;;;;;;;1999.90;999.90;;;;;;;23.33;55.84;96275.72;5132522;27;20200;-59
2021/06/05 08:01:00;;;;;;;1999.90;999.90;;;;;;;23.47;55.29;96280.47;5132080;27;20202;-59
2021/06/05 08:03:26;;;;;;;1999.90;999.90;;;;;;;23.52;56.72;96278.28;5132084;27;20279;-59
2021/06/05 08:05:53;;;;;;;1999.90;999.90;;;;;;;23.83;55.22;96277.22;5132002;27;20194;-59
2021/06/05 08:08:20;;;;;;;1999.90;999.90;;;;;;;23.84;54.44;96272.69;5131653;27;20286;-59
2021/06/05 08:10:48;;;;;;;1999.90;999.90;;;;;;;23.68;54.27;96269.41;5132011;27;20247;-61
2021/06/05 08:13:15;;;;;;;1999.90;999.90;;;;;;;23.93;54.83;96265.97;5132115;27;20194;-60
2021/06/05 08:15:45;;;;;;;1999.90;999.90;;;;;;;23.71;51.85;96266.81;5132112;27;20202;-59
2021/06/05 08:18:14;;;;;;;1999.90;999.90;;;;;;;23.27;53.42;96258.56;5131889;27;20196;-59
2021/06/05 08:20:44;;;;;;;1999.90;999.90;;;;;;;23.16;53.67;96250.44;5131742;27;20198;-59
2021/06/05 08:23:11;;;;;;;1999.90;999.90;;;;;;;23.46;54.46;96242.56;5132090;27;20202;-59
2021/06/05 08:25:39;;;;;;;1999.90;999.90;;;;;;;23.59;51.80;96246.56;5131885;27;20202;-58
2021/06/05 08:28:08;;;;;;;1999.90;999.90;;;;;;;23.67;50.82;96250.06;5131769;27;20586;-59
2021/06/05 08:30:39;;;;;;;1999.90;999.90;;;;;;;23.95;52.93;96252.34;5131689;27;20246;-59
2021/06/05 08:33:07;;;;;;;1999.90;999.90;;;;;;;24.26;49.29;96251.97;5131525;27;20190;-59
2021/06/05 08:35:34;;;;;;;1999.90;999.90;;;;;;;24.39;49.05;96239.22;5131646;27;20218;-59
2021/06/05 08:38:01;;;;;;;1999.90;999.90;;;;;;;24.44;48.30;96238.88;5131813;27;20229;-59
2021/06/05 08:40:39;;;;;;;1999.90;999.90;;;;;;;24.84;49.41;96240.78;5131255;27;20194;-59
2021/06/05 08:43:07;;;;;;;1999.90;999.90;;;;;;;24.72;47.62;96241.81;5131563;27;20186;-60
2021/06/05 08:45:34;;;;;;;1999.90;999.90;;;;;;;24.24;46.89;96237.53;5131395;27;20194;-59
2021/06/05 08:48:03;;;;;;;1999.90;999.90;;;;;;;24.09;44.97;96235.81;5131399;27;20210;-58
2021/06/05 08:50:31;;;;;;;1999.90;999.90;;;;;;;24.26;47.66;96227.31;5131540;27;20226;-60
2021/06/05 08:53:03;;;;;;;1999.90;999.90;;;;;;;24.84;46.34;96228.25;5131502;27;20195;-59
2021/06/05 08:55:36;;;;;;;1999.90;999.90;;;;;;;25.01;45.17;96221.56;5131334;27;20194;-59
2021/06/05 08:58:11;;;;;;;1999.90;999.90;;;;;;;25.25;45.67;96220.25;5131254;27;20565;-59
2021/06/05 09:00:43;;;;;;;1999.90;999.90;;;;;;;25.09;42.83;96220.53;5131176;27;20248;-60
2021/06/05 09:03:13;;;;;;;1999.90;999.90;;;;;;;25.59;41.78;96211.00;5131419;27;20190;-59
2021/06/05 09:05:47;;;;;;;1999.90;999.90;;;;;;;25.55;41.60;96207.53;5131091;27;20220;-59
2021/06/05 09:08:18;;;;;;;1999.90;999.90;;;;;;;25.60;40.69;96201.09;5131026;27;20255;-59
2021/06/05 09:10:46;;;;;;;1999.90;999.90;;;;;;;25.74;38.56;96200.41;5130927;27;20298;-58
2021/06/05 09:13:15;;;;;;;1999.90;999.90;;;;;;;25.91;39.55;96205.03;5130943;28;20600;-58
2021/06/05 09:15:42;;;;;;;1999.90;999.90;;;;;;;26.00;40.77;96198.22;5130972;28;20187;-58
2021/06/05 09:18:11;;;;;;;1999.90;999.90;;;;;;;25.70;39.38;96195.81;5131307;28;20208;-59
2021/06/05 09:20:39;;;;;;;1999.90;999.90;;;;;;;25.28;42.10;96193.66;5131335;28;20204;-58
2021/06/05 09:23:31;;;;;;;1999.90;999.90;;;;;;;25.44;40.87;96185.41;5131125;28;20206;-58
2021/06/05 09:26:17;;;;;;;1999.90;999.90;;;;;;;25.58;39.75;96190.81;5131149;28;20198;-58
2021/06/05 09:28:46;;;;;;;1999.90;999.90;;;;;;;25.37;39.77;96182.69;5130834;27;20214;-59
2021/06/05 09:31:16;;;;;;;1999.90;999.90;;;;;;;25.12;39.13;96185.19;5130832;27;20622;-58
2021/06/05 09:33:43;;;;;;;1999.90;999.90;;;;;;;25.17;38.38;96186.72;5130872;27;20206;-57
2021/06/05 09:36:32;;;;;;;1999.90;999.90;;;;;;;24.99;36.95;96175.22;5130890;28;20201;-59
2021/06/05 09:39:01;;;;;;;1999.90;999.90;;;;;;;24.69;34.97;96173.44;5131092;28;20190;-59
2021/06/05 09:41:38;;;;;;;1999.90;999.90;;;;;;;24.57;34.61;96168.38;5130762;27;20194;-59
2021/06/05 09:44:23;;;;;;;1999.90;999.90;;;;;;;24.53;36.46;96172.16;5130660;27;20194;-59
2021/06/05 09:46:57;;;;;;;1999.90;999.90;;;;;;;24.77;35.78;96167.03;5130671;28;20231;-57
2021/06/05 09:49:29;;;;;;;1999.90;999.90;;;;;;;24.99;37.92;96165.34;5130863;28;20273;-58
2021/06/05 09:52:07;;;;;;;1999.90;999.90;;;;;;;25.14;38.83;96158.22;5133319;27;20243;-58
2021/06/05 09:54:37;;;;;;;1999.90;999.90;;;;;;;25.02;37.15;96166.47;5134630;27;20270;-58
2021/06/05 09:57:25;;;;;;;1999.90;999.90;;;;;;;24.91;37.46;96168.31;5134406;27;20205;-58
2021/06/05 10:00:05;;;;;;;1999.90;999.90;;;;;;;25.06;36.09;96160.06;5134728;27;20222;-59
2021/06/05 10:02:32;;;;;;;1999.90;999.90;;;;;;;25.34;35.62;96138.19;5134449;27;20200;-58
2021/06/05 10:05:08;;;;;;;1999.90;999.90;;;;;;;25.58;35.06;96136.81;5134437;27;20202;-59
2021/06/05 10:07:35;;;;;;;1999.90;999.90;;;;;;;25.70;34.52;96131.91;5134579;27;20228;-59
2021/06/05 10:10:06;;;;;;;1999.90;999.90;;;;;;;25.85;34.46;96129.31;5134325;27;20650;-59
2021/06/05 10:12:37;;;;;;;1999.90;999.90;;;;;;;25.87;36.16;96132.34;5134466;27;20544;-59
2021/06/05 10:15:08;;;;;;;1999.90;999.90;;;;;;;25.87;36.06;96135.00;5134302;27;20198;-62
2021/06/05 10:17:43;;;;;;;1999.90;999.90;;;;;;;25.64;36.41;96136.09;5134354;27;20756;-60
2021/06/05 10:20:23;;;;;;;1999.90;999.90;;;;;;;25.63;37.07;96139.88;5134137;27;20190;-60
2021/06/05 10:22:52;;;;;;;1999.90;999.90;;;;;;;25.90;33.88;96128.94;5134359;27;20243;-60
2021/06/05 10:25:34;;;;;;;1999.90;999.90;;;;;;;25.57;35.57;96138.69;5134148;27;20216;-60
2021/06/05 10:28:06;;;;;;;1999.90;999.90;;;;;;;25.78;34.90;96127.38;5133812;27;20785;-61
2021/06/05 10:30:46;;;;;;;1999.90;999.90;;;;;;;26.11;34.90;96127.06;5133975;27;20222;-60
2021/06/05 10:33:23;;;;;;;1999.90;999.90;;;;;;;26.49;33.46;96130.97;5134230;27;20657;-60
2021/06/05 10:35:51;;;;;;;1999.90;999.90;;;;;;;26.39;34.58;96131.72;5133922;27;20325;-60
2021/06/05 10:38:27;;;;;;;1999.90;999.90;;;;;;;26.33;34.28;96127.91;5133642;27;20191;-61
2021/06/05 10:40:54;;;;;;;1999.90;999.90;;;;;;;26.74;32.54;96125.66;5133707;27;20190;-60
2021/06/05 10:43:21;;;;;;;1999.90;999.90;;;;;;;27.04;32.01;96124.50;5133912;27;20218;-61
2021/06/05 10:45:50;;;;;;;1999.90;999.90;;;;;;;26.91;31.79;96121.44;5133497;27;20236;-60
2021/06/05 10:48:26;;;;;;;1999.90;999.90;;;;;;;26.71;30.64;96113.06;5133732;27;20201;-59
2021/06/05 10:51:03;;;;;;;1999.90;999.90;;;;;;;26.68;33.42;96113.81;5133271;27;20760;-59
2021/06/05 10:53:33;;;;;;;1999.90;999.90;;;;;;;27.11;31.99;96106.53;5133629;27;20202;-61
2021/06/05 10:56:03;;;;;;;1999.90;999.90;;;;;;;27.24;30.86;96106.91;5133420;27;20630;-60
2021/06/05 10:58:43;;;;;;;1999.90;999.90;;;;;;;27.23;34.01;96108.06;5133732;27;20205;-59
2021/06/05 11:01:33;;;;;;;1999.90;999.90;;;;;;;27.44;33.87;96097.31;5133483;27;20210;-59